Time;durP1;ratioP1;P1;durP2;ratioP2;P2;SDS_P1;SDS_P2;PMS_P1;PMS_P2;Temp;Humidity;BMP_temperature;BMP_pressure;BME280_temperature;BME280_humidity;BME280_pressure;Samples;Min_cycle;Max_cycle;Signal;HPM_P1;HPM_P2
2023/09/24 00:01:05;;;;;;;379.97;191.00;;;;;;;;;;4970253;28;20534;-66
2023/09/24 00:03:32;;;;;;;387.80;190.60;;;;;;;;;;4965790;28;20260;-66
2023/09/24 00:06:05;;;;;;;375.27;209.23;;;;;;;;;;4948946;28;20229;-66
2023/09/24 00:08:31;;;;;;;385.53;190.20;;;;;;;;;;4965353;28;20325;-66
2023/09/24 00:10:57;;;;;;;373.13;178.77;;;;;;;;;;4947251;28;20722;-66
2023/09/24 00:13:23;;;;;;;356.97;169.83;;;;;;;;;;4971945;28;20229;-66
2023/09/24 00:15:49;;;;;;;348.57;165.27;;;;;;;;;;4962497;28;20281;-66
2023/09/24 00:18:17;;;;;;;359.17;177.90;;;;;;;;;;4963925;28;20785;-66
2023/09/24 00:20:43;;;;;;;384.27;192.17;;;;;;;;;;4964899;28;20672;-66
2023/09/24 00:23:10;;;;;;;369.90;181.63;;;;;;;;;;4951874;28;20924;-65
2023/09/24 00:25:36;;;;;;;406.97;206.40;;;;;;;;;;4964287;28;20226;-66
2023/09/24 00:28:02;;;;;;;358.80;174.80;;;;;;;;;;4967109;28;20206;-66
2023/09/24 00:30:28;;;;;;;362.87;174.03;;;;;;;;;;4966644;28;20178;-66
2023/09/24 00:32:54;;;;;;;355.10;164.47;;;;;;;;;;4976383;28;20215;-66
2023/09/24 00:35:22;;;;;;;372.37;184.07;;;;;;;;;;4971747;28;20217;-66
2023/09/24 00:37:48;;;;;;;375.77;189.40;;;;;;;;;;4965512;28;20647;-66
2023/09/24 00:40:14;;;;;;;353.00;172.70;;;;;;;;;;4968317;28;20218;-66
2023/09/24 00:42:40;;;;;;;373.83;188.40;;;;;;;;;;4962249;28;20187;-65
2023/09/24 00:45:10;;;;;;;354.73;175.90;;;;;;;;;;4959771;28;20839;-65
2023/09/24 00:47:37;;;;;;;356.23;176.33;;;;;;;;;;4971333;28;20276;-66
2023/09/24 00:50:04;;;;;;;360.13;183.23;;;;;;;;;;4973642;28;20287;-65
2023/09/24 00:52:30;;;;;;;364.10;181.87;;;;;;;;;;4962989;28;20914;-66
2023/09/24 00:54:57;;;;;;;359.40;179.33;;;;;;;;;;4963004;28;20205;-66
2023/09/24 00:57:24;;;;;;;358.90;172.10;;;;;;;;;;4964933;28;20700;-66
2023/09/24 00:59:50;;;;;;;385.90;193.53;;;;;;;;;;4965516;28;20213;-66
2023/09/24 01:02:17;;;;;;;374.23;182.40;;;;;;;;;;4962220;28;20751;-66
2023/09/24 01:04:43;;;;;;;383.83;195.80;;;;;;;;;;4967931;28;20273;-66
2023/09/24 01:07:09;;;;;;;377.13;209.87;;;;;;;;;;4947687;28;20223;-66
2023/09/24 01:09:35;;;;;;;397.73;195.80;;;;;;;;;;4967583;28;20182;-66
2023/09/24 01:12:03;;;;;;;346.43;182.77;;;;;;;;;;4968283;28;20221;-66
2023/09/24 01:14:29;;;;;;;347.03;180.23;;;;;;;;;;4961513;28;20235;-66
2023/09/24 01:16:55;;;;;;;364.60;187.10;;;;;;;;;;4969863;28;20692;-66
2023/09/24 01:19:22;;;;;;;359.43;180.90;;;;;;;;;;4947222;28;20263;-66
2023/09/24 01:21:50;;;;;;;373.67;191.63;;;;;;;;;;4964813;28;20708;-65
2023/09/24 01:24:16;;;;;;;338.83;166.20;;;;;;;;;;4962293;28;20202;-66
2023/09/24 01:26:44;;;;;;;356.17;178.87;;;;;;;;;;4967649;28;20217;-66
2023/09/24 01:29:11;;;;;;;347.53;168.97;;;;;;;;;;4961659;28;20367;-66
2023/09/24 01:31:39;;;;;;;353.27;179.87;;;;;;;;;;4961336;28;20225;-66
2023/09/24 01:34:09;;;;;;;366.53;185.23;;;;;;;;;;4969496;28;20296;-66
2023/09/24 01:36:35;;;;;;;372.63;188.50;;;;;;;;;;4960455;28;20326;-65
2023/09/24 01:39:01;;;;;;;356.30;179.00;;;;;;;;;;4967874;28;20209;-66
2023/09/24 01:41:27;;;;;;;358.60;183.47;;;;;;;;;;4957506;28;20213;-65
2023/09/24 01:43:53;;;;;;;366.80;185.07;;;;;;;;;;4961035;28;20252;-66
2023/09/24 01:46:20;;;;;;;344.90;170.47;;;;;;;;;;4965637;28;20309;-65
2023/09/24 01:48:51;;;;;;;365.67;189.63;;;;;;;;;;4965561;28;20206;-66
2023/09/24 01:51:20;;;;;;;346.37;173.67;;;;;;;;;;4964726;28;20263;-66
2023/09/24 01:53:45;;;;;;;370.00;192.33;;;;;;;;;;4962608;28;20207;-65
2023/09/24 01:56:13;;;;;;;355.90;175.17;;;;;;;;;;4960865;28;20912;-66
2023/09/24 01:58:39;;;;;;;370.13;194.77;;;;;;;;;;4967762;28;20234;-65
2023/09/24 02:01:06;;;;;;;368.30;191.67;;;;;;;;;;4945515;28;20589;-66
2023/09/24 02:03:32;;;;;;;356.73;188.93;;;;;;;;;;4963936;28;20618;-66
2023/09/24 02:05:58;;;;;;;348.03;173.87;;;;;;;;;;4963986;28;20210;-66
2023/09/24 02:08:24;;;;;;;338.37;169.27;;;;;;;;;;4963533;28;20225;-66
2023/09/24 02:10:50;;;;;;;372.13;189.90;;;;;;;;;;4976111;28;20221;-66
2023/09/24 02:13:17;;;;;;;358.23;176.83;;;;;;;;;;4976465;28;20739;-65
2023/09/24 02:15:44;;;;;;;357.73;181.83;;;;;;;;;;4966199;28;20190;-66
2023/09/24 02:18:10;;;;;;;350.40;173.97;;;;;;;;;;4973586;28;20250;-66
2023/09/24 02:20:36;;;;;;;350.73;177.23;;;;;;;;;;4974718;28;20253;-66
2023/09/24 02:23:04;;;;;;;335.07;165.57;;;;;;;;;;4967240;28;20281;-65
2023/09/24 02:25:32;;;;;;;367.63;184.80;;;;;;;;;;4953736;28;20644;-66
2023/09/24 02:27:58;;;;;;;336.10;166.10;;;;;;;;;;4971930;28;20205;-65
2023/09/24 02:30:25;;;;;;;356.73;180.43;;;;;;;;;;4969832;28;20221;-65
2023/09/24 02:32:51;;;;;;;364.80;182.57;;;;;;;;;;4974439;28;20207;-66
2023/09/24 02:35:17;;;;;;;364.87;189.87;;;;;;;;;;4972630;28;20695;-66
2023/09/24 02:37:45;;;;;;;380.10;192.47;;;;;;;;;;4956367;28;20237;-66
2023/09/24 02:40:16;;;;;;;353.70;174.27;;;;;;;;;;4963610;28;20222;-67
2023/09/24 02:42:45;;;;;;;343.07;172.50;;;;;;;;;;4970204;28;20192;-66
2023/09/24 02:45:11;;;;;;;351.33;178.13;;;;;;;;;;4967696;28;20281;-65
2023/09/24 02:47:37;;;;;;;383.53;197.00;;;;;;;;;;4969529;28;20588;-65
2023/09/24 02:50:13;;;;;;;402.87;208.20;;;;;;;;;;4971362;28;20268;-66
2023/09/24 02:52:39;;;;;;;388.43;174.10;;;;;;;;;;4970758;28;20751;-66
2023/09/24 02:55:06;;;;;;;384.13;170.90;;;;;;;;;;4969442;28;20212;-66
2023/09/24 02:57:32;;;;;;;371.97;170.97;;;;;;;;;;4967965;28;20192;-66
2023/09/24 02:59:59;;;;;;;374.53;173.50;;;;;;;;;;4970777;28;20228;-66
2023/09/24 03:02:28;;;;;;;386.67;179.63;;;;;;;;;;4961619;28;20252;-66
2023/09/24 03:04:54;;;;;;;417.87;191.17;;;;;;;;;;4970722;28;20364;-65
2023/09/24 03:07:20;;;;;;;413.90;187.50;;;;;;;;;;4961217;28;20635;-66
2023/09/24 03:09:46;;;;;;;414.23;189.20;;;;;;;;;;4968443;28;20187;-65
2023/09/24 03:12:12;;;;;;;393.97;175.53;;;;;;;;;;4950793;28;20240;-66
2023/09/24 03:14:38;;;;;;;376.30;164.83;;;;;;;;;;4970504;28;20222;-65
2023/09/24 03:17:05;;;;;;;406.50;182.23;;;;;;;;;;4952505;28;20217;-66
2023/09/24 03:19:31;;;;;;;376.57;168.13;;;;;;;;;;4951927;28;20218;-66
2023/09/24 03:21:57;;;;;;;391.90;178.13;;;;;;;;;;4967382;28;20269;-65
2023/09/24 03:24:23;;;;;;;377.97;170.20;;;;;;;;;;4973634;28;20276;-65
2023/09/24 03:26:49;;;;;;;401.53;188.97;;;;;;;;;;4962725;28;20241;-65
2023/09/24 03:29:15;;;;;;;388.47;172.23;;;;;;;;;;4960156;28;20217;-66
2023/09/24 03:31:42;;;;;;;396.53;173.93;;;;;;;;;;4967162;28;20308;-65
2023/09/24 03:34:07;;;;;;;406.20;181.60;;;;;;;;;;4955737;28;20235;-65
2023/09/24 03:36:33;;;;;;;385.17;173.00;;;;;;;;;;4974090;28;20621;-66
2023/09/24 03:38:59;;;;;;;389.77;179.77;;;;;;;;;;4967378;28;20209;-65
2023/09/24 03:41:25;;;;;;;352.17;156.97;;;;;;;;;;4963925;28;20210;-65
2023/09/24 03:43:52;;;;;;;404.77;194.43;;;;;;;;;;4997089;23;20380;-47
2023/09/24 03:46:18;;;;;;;375.30;188.57;;;;;;;;;;4989691;28;20300;-47
2023/09/24 03:48:44;;;;;;;430.33;198.43;;;;;;;;;;4984160;28;20215;-47
2023/09/24 03:51:10;;;;;;;452.27;217.37;;;;;;;;;;4973389;28;20221;-47
2023/09/24 03:53:37;;;;;;;399.20;184.10;;;;;;;;;;4969806;28;20225;-47
2023/09/24 03:56:07;;;;;;;389.60;179.33;;;;;;;;;;4971418;28;20240;-47
2023/09/24 03:58:33;;;;;;;390.87;180.03;;;;;;;;;;4977454;28;20248;-47
2023/09/24 04:00:58;;;;;;;429.53;202.17;;;;;;;;;;4973172;28;20248;-47
2023/09/24 04:03:24;;;;;;;410.90;197.53;;;;;;;;;;4973467;28;20193;-47
2023/09/24 04:05:51;;;;;;;428.57;211.03;;;;;;;;;;4971146;28;20228;-47
2023/09/24 04:08:17;;;;;;;401.63;201.40;;;;;;;;;;4969864;28;20462;-47
2023/09/24 04:10:43;;;;;;;466.77;229.83;;;;;;;;;;4968272;28;20817;-47
2023/09/24 04:13:08;;;;;;;405.67;177.17;;;;;;;;;;5014810;23;20286;-75
2023/09/24 04:15:34;;;;;;;365.50;166.03;;;;;;;;;;5006206;28;20184;-75
2023/09/24 04:18:00;;;;;;;403.60;167.97;;;;;;;;;;4987449;28;20267;-74
2023/09/24 04:20:29;;;;;;;385.43;165.33;;;;;;;;;;4988542;28;20213;-75
2023/09/24 04:22:56;;;;;;;402.67;181.37;;;;;;;;;;5001857;28;20291;-74
2023/09/24 04:25:24;;;;;;;416.30;186.83;;;;;;;;;;5008172;28;20233;-75
2023/09/24 04:27:50;;;;;;;406.50;182.53;;;;;;;;;;5006578;28;20756;-75
2023/09/24 04:30:17;;;;;;;363.43;160.07;;;;;;;;;;4992548;28;20185;-75
2023/09/24 04:32:51;;;;;;;398.63;194.90;;;;;;;;;;5002196;28;20253;-75
2023/09/24 04:35:20;;;;;;;397.30;181.33;;;;;;;;;;5002671;28;20240;-75
2023/09/24 04:37:47;;;;;;;392.70;170.87;;;;;;;;;;5008957;28;20213;-74
2023/09/24 04:40:14;;;;;;;403.47;196.40;;;;;;;;;;5004066;28;20224;-75
2023/09/24 04:42:41;;;;;;;410.93;187.53;;;;;;;;;;5002553;28;20304;-75
2023/09/24 04:45:08;;;;;;;381.93;170.67;;;;;;;;;;5004258;28;20225;-75
2023/09/24 04:47:34;;;;;;;336.63;154.63;;;;;;;;;;4990019;28;20863;-75
2023/09/24 04:50:00;;;;;;;408.30;195.90;;;;;;;;;;5000090;28;20220;-74
2023/09/24 04:52:26;;;;;;;366.43;166.10;;;;;;;;;;5005428;28;20622;-74
2023/09/24 04:54:53;;;;;;;389.97;174.17;;;;;;;;;;5001208;28;20267;-74
2023/09/24 04:57:19;;;;;;;371.40;175.50;;;;;;;;;;4983915;28;20181;-74
2023/09/24 04:59:45;;;;;;;386.93;176.37;;;;;;;;;;4986066;28;20209;-74
2023/09/24 05:02:11;;;;;;;374.90;170.87;;;;;;;;;;5002068;28;20309;-75
2023/09/24 05:04:37;;;;;;;369.57;163.97;;;;;;;;;;5003310;28;20220;-74
2023/09/24 05:07:03;;;;;;;398.90;177.63;;;;;;;;;;4984063;28;20185;-74
2023/09/24 05:09:30;;;;;;;392.87;185.67;;;;;;;;;;5003652;28;20231;-74
2023/09/24 05:11:56;;;;;;;394.37;174.67;;;;;;;;;;5001067;28;20213;-74
2023/09/24 05:14:22;;;;;;;388.90;182.43;;;;;;;;;;4990912;28;20224;-74
2023/09/24 05:16:50;;;;;;;400.37;182.03;;;;;;;;;;4988909;28;20224;-75
2023/09/24 05:19:16;;;;;;;359.93;159.17;;;;;;;;;;5008184;28;20211;-75
2023/09/24 05:21:42;;;;;;;400.83;171.00;;;;;;;;;;4986561;28;20537;-75
2023/09/24 05:24:08;;;;;;;390.20;173.33;;;;;;;;;;4989416;28;20224;-75
2023/09/24 05:26:34;;;;;;;372.17;179.97;;;;;;;;;;5005929;28;20328;-75
2023/09/24 05:29:00;;;;;;;408.40;204.23;;;;;;;;;;5006232;28;20830;-75
2023/09/24 05:31:26;;;;;;;376.80;170.40;;;;;;;;;;5010997;28;20216;-77
2023/09/24 05:33:52;;;;;;;374.70;167.80;;;;;;;;;;4986455;28;20283;-75
2023/09/24 05:36:18;;;;;;;388.93;191.67;;;;;;;;;;5004186;28;20896;-75
2023/09/24 05:38:44;;;;;;;390.70;173.03;;;;;;;;;;5003519;28;20221;-75
2023/09/24 05:41:10;;;;;;;439.00;267.20;;;;;;;;;;5002995;28;20498;-73
2023/09/24 05:43:38;;;;;;;361.03;160.30;;;;;;;;;;5002427;28;20224;-70
2023/09/24 05:46:04;;;;;;;403.77;197.40;;;;;;;;;;4989392;28;20189;-71
2023/09/24 05:48:30;;;;;;;367.83;197.10;;;;;;;;;;5006343;28;20216;-71
2023/09/24 05:50:56;;;;;;;367.63;178.83;;;;;;;;;;4986699;28;20750;-71
2023/09/24 05:53:22;;;;;;;361.37;160.43;;;;;;;;;;5005864;28;20687;-70
2023/09/24 05:55:55;;;;;;;392.40;176.63;;;;;;;;;;5006291;28;20225;-70
2023/09/24 05:58:21;;;;;;;357.83;160.70;;;;;;;;;;4981218;28;20220;-73
2023/09/24 06:00:47;;;;;;;373.70;170.40;;;;;;;;;;4986178;28;20185;-75
2023/09/24 06:03:14;;;;;;;377.87;167.80;;;;;;;;;;5006965;28;20193;-76
2023/09/24 06:05:40;;;;;;;360.60;161.23;;;;;;;;;;5004382;28;20213;-76
2023/09/24 06:08:06;;;;;;;354.30;160.80;;;;;;;;;;5005303;28;20259;-75
2023/09/24 06:10:35;;;;;;;377.10;214.63;;;;;;;;;;4985925;28;20213;-75
2023/09/24 06:13:01;;;;;;;370.40;168.33;;;;;;;;;;5007730;28;20200;-75
2023/09/24 06:15:27;;;;;;;362.57;158.97;;;;;;;;;;5010789;28;20211;-76
2023/09/24 06:17:53;;;;;;;361.73;161.87;;;;;;;;;;4988886;28;20224;-76
2023/09/24 06:20:19;;;;;;;387.20;207.23;;;;;;;;;;4987114;28;20274;-75
2023/09/24 06:22:52;;;;;;;339.20;157.80;;;;;;;;;;5004470;28;20208;-76
2023/09/24 06:25:18;;;;;;;379.20;182.23;;;;;;;;;;5003209;28;20262;-76
2023/09/24 06:27:44;;;;;;;382.93;199.27;;;;;;;;;;4985976;28;20217;-75
2023/09/24 06:30:10;;;;;;;372.90;198.43;;;;;;;;;;4987826;28;20584;-77
2023/09/24 06:32:36;;;;;;;351.80;154.53;;;;;;;;;;4989425;28;20777;-76
2023/09/24 06:35:03;;;;;;;396.43;174.67;;;;;;;;;;4981498;28;20221;-75
2023/09/24 06:37:29;;;;;;;356.17;158.43;;;;;;;;;;4989640;28;20221;-75
2023/09/24 06:39:55;;;;;;;409.17;217.23;;;;;;;;;;5000747;28;20185;-76
2023/09/24 06:42:22;;;;;;;375.37;163.53;;;;;;;;;;4988419;28;20531;-75
2023/09/24 06:44:48;;;;;;;374.87;174.57;;;;;;;;;;4986265;28;20220;-76
2023/09/24 06:47:14;;;;;;;367.23;168.27;;;;;;;;;;4988680;28;20220;-75
2023/09/24 06:49:39;;;;;;;357.17;164.37;;;;;;;;;;5007310;28;20381;-79
2023/09/24 06:52:05;;;;;;;381.37;178.03;;;;;;;;;;4985500;28;20184;-76
2023/09/24 06:54:34;;;;;;;375.23;188.33;;;;;;;;;;5008956;28;20270;-75
2023/09/24 06:57:00;;;;;;;421.03;245.50;;;;;;;;;;5003094;28;20217;-77
2023/09/24 06:59:26;;;;;;;349.00;147.57;;;;;;;;;;5010994;28;20288;-85
2023/09/24 07:01:53;;;;;;;415.30;218.30;;;;;;;;;;5002303;28;20335;-78
2023/09/24 07:04:19;;;;;;;384.30;179.83;;;;;;;;;;5009709;28;20225;-78
2023/09/24 07:06:46;;;;;;;381.70;178.77;;;;;;;;;;5006757;28;20352;-80
2023/09/24 07:09:12;;;;;;;408.27;188.77;;;;;;;;;;4988350;28;20316;-82
2023/09/24 07:11:38;;;;;;;382.97;170.20;;;;;;;;;;5004394;28;20298;-79
2023/09/24 07:14:07;;;;;;;443.30;218.30;;;;;;;;;;5009253;28;20221;-79
2023/09/24 07:16:34;;;;;;;400.67;221.10;;;;;;;;;;5005106;28;20722;-79
2023/09/24 07:19:00;;;;;;;459.93;228.53;;;;;;;;;;4987488;28;20195;-80
2023/09/24 07:21:28;;;;;;;381.30;198.10;;;;;;;;;;4985043;28;20181;-75
2023/09/24 07:23:54;;;;;;;420.90;194.13;;;;;;;;;;4991787;28;20214;-72
2023/09/24 07:26:20;;;;;;;500.13;298.47;;;;;;;;;;4992252;28;20225;-72
2023/09/24 07:28:47;;;;;;;412.20;197.33;;;;;;;;;;4992960;28;20355;-71
2023/09/24 07:31:19;;;;;;;435.47;212.90;;;;;;;;;;4978582;28;20213;-63
2023/09/24 07:33:45;;;;;;;406.73;180.03;;;;;;;;;;4995968;28;20242;-63
2023/09/24 07:36:11;;;;;;;458.77;256.17;;;;;;;;;;4998011;28;20682;-63
2023/09/24 07:38:37;;;;;;;406.50;192.73;;;;;;;;;;4975881;28;20945;-63
2023/09/24 07:41:03;;;;;;;437.17;236.40;;;;;;;;;;4994918;28;20212;-63
2023/09/24 07:43:30;;;;;;;406.40;202.97;;;;;;;;;;4994033;28;20311;-64
2023/09/24 07:45:57;;;;;;;455.17;239.37;;;;;;;;;;4995704;28;20363;-63
2023/09/24 07:48:22;;;;;;;435.97;220.87;;;;;;;;;;4979967;28;20212;-64
2023/09/24 07:50:53;;;;;;;423.87;207.53;;;;;;;;;;4974246;28;20267;-65
2023/09/24 07:53:19;;;;;;;455.40;259.70;;;;;;;;;;4996609;28;20221;-63
2023/09/24 07:55:45;;;;;;;429.97;205.30;;;;;;;;;;4991771;28;20209;-65
2023/09/24 07:58:11;;;;;;;492.63;399.07;;;;;;;;;;4978326;28;20220;-64
2023/09/24 08:00:38;;;;;;;422.57;192.73;;;;;;;;;;4997204;28;20181;-64
2023/09/24 08:03:05;;;;;;;460.57;269.17;;;;;;;;;;4976444;28;20223;-65
2023/09/24 08:05:32;;;;;;;430.97;216.83;;;;;;;;;;4977987;28;20256;-65
2023/09/24 08:07:58;;;;;;;407.43;189.90;;;;;;;;;;4977418;28;20266;-65
2023/09/24 08:10:24;;;;;;;402.30;185.87;;;;;;;;;;4995427;28;20304;-64
2023/09/24 08:12:50;;;;;;;440.87;209.67;;;;;;;;;;4976375;28;20295;-65
2023/09/24 08:15:16;;;;;;;411.77;198.10;;;;;;;;;;4976042;28;20198;-66
2023/09/24 08:17:42;;;;;;;441.83;222.63;;;;;;;;;;4992466;28;20223;-66
2023/09/24 08:20:09;;;;;;;431.13;221.77;;;;;;;;;;4998572;28;20567;-70
2023/09/24 08:22:35;;;;;;;381.60;175.63;;;;;;;;;;5000449;28;20216;-70
2023/09/24 08:25:01;;;;;;;469.97;236.87;;;;;;;;;;4979899;28;20204;-70
2023/09/24 08:27:27;;;;;;;387.00;177.40;;;;;;;;;;4990874;28;20216;-70
2023/09/24 08:29:53;;;;;;;428.03;218.97;;;;;;;;;;4996679;28;20243;-71
2023/09/24 08:32:19;;;;;;;418.80;201.77;;;;;;;;;;4997208;28;20225;-70
2023/09/24 08:34:45;;;;;;;407.57;202.30;;;;;;;;;;4999156;28;20270;-71
2023/09/24 08:37:11;;;;;;;410.20;198.30;;;;;;;;;;4997015;28;20944;-70
2023/09/24 08:39:37;;;;;;;374.20;176.60;;;;;;;;;;4999312;28;20741;-70
2023/09/24 08:42:03;;;;;;;393.77;180.63;;;;;;;;;;4996314;28;20228;-71
2023/09/24 08:44:30;;;;;;;379.63;183.30;;;;;;;;;;4996030;28;20216;-70
2023/09/24 08:46:56;;;;;;;411.73;203.63;;;;;;;;;;4977783;28;20702;-71
2023/09/24 08:49:22;;;;;;;387.10;186.77;;;;;;;;;;4980895;28;20248;-70
2023/09/24 08:51:49;;;;;;;407.50;195.27;;;;;;;;;;4980025;28;20196;-70
2023/09/24 08:54:15;;;;;;;410.30;208.07;;;;;;;;;;4980108;28;22982;-70
2023/09/24 08:56:41;;;;;;;406.47;185.53;;;;;;;;;;4994791;28;21591;-70
2023/09/24 08:59:07;;;;;;;429.63;232.23;;;;;;;;;;4977672;28;20241;-70
2023/09/24 09:01:33;;;;;;;422.70;213.27;;;;;;;;;;5000528;28;20209;-70
2023/09/24 09:03:59;;;;;;;408.00;189.93;;;;;;;;;;4983050;28;20215;-71
2023/09/24 09:06:32;;;;;;;411.70;202.10;;;;;;;;;;4998411;28;20665;-70
2023/09/24 09:08:58;;;;;;;405.40;184.33;;;;;;;;;;4996530;28;20389;-70
2023/09/24 09:11:45;;;;;;;428.73;220.13;;;;;;;;;;4995679;28;20365;-70
2023/09/24 09:14:12;;;;;;;435.60;202.57;;;;;;;;;;4974542;28;20221;-70
2023/09/24 09:16:55;;;;;;;398.77;179.73;;;;;;;;;;4996169;28;20204;-70
2023/09/24 09:19:21;;;;;;;442.50;241.60;;;;;;;;;;4999579;28;20626;-70
2023/09/24 09:21:47;;;;;;;417.30;226.30;;;;;;;;;;5006336;28;20176;-69
2023/09/24 09:24:25;;;;;;;408.70;194.80;;;;;;;;;;5002416;28;20197;-68
2023/09/24 09:26:55;;;;;;;416.63;223.93;;;;;;;;;;5002546;28;20288;-69
2023/09/24 09:29:22;;;;;;;426.60;233.83;;;;;;;;;;5005406;28;20238;-73
2023/09/24 09:31:52;;;;;;;402.10;198.77;;;;;;;;;;5003315;28;20212;-69
2023/09/24 09:34:18;;;;;;;408.10;194.17;;;;;;;;;;4985643;28;20722;-69
2023/09/24 09:36:44;;;;;;;407.93;191.83;;;;;;;;;;5004502;28;20615;-68
2023/09/24 09:39:10;;;;;;;406.87;193.87;;;;;;;;;;4988657;28;20299;-69
2023/09/24 09:41:39;;;;;;;406.77;198.03;;;;;;;;;;5003501;28;20307;-69
2023/09/24 09:44:05;;;;;;;406.23;199.40;;;;;;;;;;5005349;28;20259;-69
2023/09/24 09:46:34;;;;;;;397.93;205.97;;;;;;;;;;4987144;28;20241;-68
2023/09/24 09:49:10;;;;;;;397.43;187.43;;;;;;;;;;5005071;28;20216;-68
2023/09/24 09:51:40;;;;;;;392.83;185.77;;;;;;;;;;5002167;28;20199;-68
2023/09/24 09:54:07;;;;;;;384.67;177.63;;;;;;;;;;4987421;28;20310;-69
2023/09/24 09:56:35;;;;;;;401.03;189.30;;;;;;;;;;5002914;28;20224;-68
2023/09/24 09:59:02;;;;;;;397.47;183.57;;;;;;;;;;5003648;28;20212;-68
2023/09/24 10:01:28;;;;;;;419.43;200.17;;;;;;;;;;5003012;28;20223;-70
2023/09/24 10:03:55;;;;;;;402.23;193.03;;;;;;;;;;4988834;28;20208;-70
2023/09/24 10:06:22;;;;;;;396.50;185.37;;;;;;;;;;5002597;28;20195;-71
2023/09/24 10:08:48;;;;;;;394.60;192.00;;;;;;;;;;5002282;28;20248;-78
2023/09/24 10:11:33;;;;;;;416.67;201.20;;;;;;;;;;5006111;28;20698;-80
2023/09/24 10:13:59;;;;;;;388.07;185.63;;;;;;;;;;4992838;28;20212;-80
2023/09/24 10:16:29;;;;;;;424.40;202.03;;;;;;;;;;4998465;28;20294;-81
2023/09/24 10:18:58;;;;;;;416.83;198.67;;;;;;;;;;4999669;28;20192;-81
2023/09/24 10:21:37;;;;;;;419.87;203.47;;;;;;;;;;4996324;28;20190;-81
2023/09/24 10:24:15;;;;;;;386.00;194.10;;;;;;;;;;4997892;28;20231;-80
2023/09/24 10:26:51;;;;;;;396.93;183.50;;;;;;;;;;5001538;28;20254;-82
2023/09/24 10:29:18;;;;;;;414.17;187.23;;;;;;;;;;5015391;28;20220;-82
2023/09/24 10:32:03;;;;;;;416.63;189.90;;;;;;;;;;4997107;28;20244;-75
2023/09/24 10:34:49;;;;;;;419.03;192.20;;;;;;;;;;4986720;28;20212;-75
2023/09/24 10:37:15;;;;;;;420.47;199.40;;;;;;;;;;5007999;28;20212;-75
2023/09/24 10:40:00;;;;;;;401.17;189.93;;;;;;;;;;4992240;28;20184;-74
2023/09/24 10:42:26;;;;;;;408.87;194.43;;;;;;;;;;4988916;28;20205;-78
2023/09/24 10:45:08;;;;;;;400.43;187.93;;;;;;;;;;4990561;28;20220;-76
2023/09/24 10:47:40;;;;;;;408.33;191.57;;;;;;;;;;5003509;28;20209;-72
2023/09/24 10:50:09;;;;;;;385.70;174.87;;;;;;;;;;5007536;28;20781;-70
2023/09/24 10:52:50;;;;;;;410.03;191.90;;;;;;;;;;4988353;28;20714;-72
2023/09/24 10:55:17;;;;;;;403.07;185.57;;;;;;;;;;4990932;28;20582;-71
2023/09/24 10:57:44;;;;;;;417.47;203.00;;;;;;;;;;4985741;28;20279;-80
2023/09/24 11:00:15;;;;;;;396.17;186.27;;;;;;;;;;5008463;28;20227;-80
2023/09/24 11:02:41;;;;;;;419.57;207.03;;;;;;;;;;4992802;28;20209;-82
2023/09/24 11:05:07;;;;;;;390.77;196.47;;;;;;;;;;5008731;28;20231;-82
2023/09/24 11:07:33;;;;;;;399.73;197.60;;;;;;;;;;4996823;28;20216;-82
2023/09/24 11:09:59;;;;;;;397.73;198.73;;;;;;;;;;4999564;28;20678;-81
2023/09/24 11:12:25;;;;;;;400.40;195.23;;;;;;;;;;4997260;28;21014;-81
2023/09/24 11:14:55;;;;;;;432.43;230.17;;;;;;;;;;4998312;28;20243;-81
2023/09/24 11:17:21;;;;;;;393.63;186.53;;;;;;;;;;4995832;28;20221;-83
2023/09/24 11:19:48;;;;;;;404.80;203.30;;;;;;;;;;5011886;28;20213;-82
2023/09/24 11:22:21;;;;;;;371.10;189.57;;;;;;;;;;5017061;28;20799;-81
2023/09/24 11:24:50;;;;;;;387.63;200.83;;;;;;;;;;5017191;28;20270;-80
2023/09/24 11:27:16;;;;;;;375.13;189.77;;;;;;;;;;4998432;28;20201;-81
2023/09/24 11:29:56;;;;;;;409.90;206.10;;;;;;;;;;4997825;28;20235;-82
2023/09/24 11:32:26;;;;;;;393.33;194.90;;;;;;;;;;4999001;28;20227;-82
2023/09/24 11:35:05;;;;;;;420.47;212.77;;;;;;;;;;5015864;28;20239;-82
2023/09/24 11:37:44;;;;;;;407.30;206.20;;;;;;;;;;4999070;28;20367;-83
2023/09/24 11:40:20;;;;;;;400.33;212.87;;;;;;;;;;4997870;28;20303;-82
2023/09/24 11:43:00;;;;;;;401.27;201.20;;;;;;;;;;4997962;28;20180;-82
2023/09/24 11:45:46;;;;;;;386.17;192.67;;;;;;;;;;4997888;28;20236;-82
2023/09/24 11:48:15;;;;;;;410.60;211.57;;;;;;;;;;4995287;28;20217;-82
2023/09/24 11:51:01;;;;;;;421.17;216.10;;;;;;;;;;5012330;28;20209;-82
2023/09/24 11:53:27;;;;;;;421.53;218.87;;;;;;;;;;4997739;28;20213;-82
2023/09/24 11:55:57;;;;;;;405.90;213.73;;;;;;;;;;5012360;28;20215;-82
2023/09/24 11:58:27;;;;;;;407.67;221.40;;;;;;;;;;4995017;28;20213;-82
2023/09/24 12:00:54;;;;;;;407.67;214.07;;;;;;;;;;4996388;28;20173;-82
2023/09/24 12:03:22;;;;;;;394.73;204.47;;;;;;;;;;4997198;28;20707;-81
2023/09/24 12:05:48;;;;;;;395.40;209.50;;;;;;;;;;4994907;28;20212;-80
2023/09/24 12:08:15;;;;;;;393.13;212.43;;;;;;;;;;4996599;28;20214;-81
2023/09/24 12:10:42;;;;;;;453.53;251.90;;;;;;;;;;4992392;28;20244;-81
2023/09/24 12:13:08;;;;;;;406.40;226.77;;;;;;;;;;4993999;28;20257;-81
2023/09/24 12:15:34;;;;;;;411.80;222.63;;;;;;;;;;4996759;28;20200;-82
2023/09/24 12:18:03;;;;;;;407.00;235.37;;;;;;;;;;4993237;28;20213;-82
2023/09/24 12:20:29;;;;;;;440.33;273.40;;;;;;;;;;5010577;28;20231;-82
2023/09/24 12:22:57;;;;;;;404.63;236.00;;;;;;;;;;4994937;28;20213;-81
2023/09/24 12:25:23;;;;;;;400.20;214.33;;;;;;;;;;4999581;28;20225;-83
2023/09/24 12:27:49;;;;;;;459.00;255.23;;;;;;;;;;4993208;28;20201;-82
2023/09/24 12:30:15;;;;;;;400.50;218.13;;;;;;;;;;4994721;28;20208;-81
2023/09/24 12:32:41;;;;;;;410.87;220.63;;;;;;;;;;4994284;28;20217;-81
2023/09/24 12:35:08;;;;;;;380.97;210.60;;;;;;;;;;4991715;28;20224;-81
2023/09/24 12:37:34;;;;;;;421.03;231.07;;;;;;;;;;4995014;28;20236;-82
2023/09/24 12:40:00;;;;;;;420.63;232.67;;;;;;;;;;5011201;28;20197;-81
2023/09/24 12:42:30;;;;;;;389.40;214.27;;;;;;;;;;5011960;28;20189;-82
2023/09/24 12:44:56;;;;;;;427.00;234.20;;;;;;;;;;4994903;28;20228;-82
2023/09/24 12:47:22;;;;;;;438.63;251.83;;;;;;;;;;4985627;28;20243;-80
2023/09/24 12:49:48;;;;;;;419.17;230.33;;;;;;;;;;4990810;28;20225;-80
2023/09/24 12:52:14;;;;;;;411.57;229.10;;;;;;;;;;5009846;28;20217;-81
2023/09/24 12:54:40;;;;;;;423.80;234.43;;;;;;;;;;4990866;28;20212;-71
2023/09/24 12:57:06;;;;;;;409.57;234.23;;;;;;;;;;5002573;28;20212;-65
2023/09/24 12:59:32;;;;;;;415.80;230.33;;;;;;;;;;5002676;28;20241;-65
2023/09/24 13:01:58;;;;;;;410.57;229.50;;;;;;;;;;5001957;28;20212;-65
2023/09/24 13:04:24;;;;;;;437.73;245.93;;;;;;;;;;4987021;28;20250;-66
2023/09/24 13:06:50;;;;;;;436.50;244.50;;;;;;;;;;5003660;28;20218;-73
2023/09/24 13:09:16;;;;;;;430.53;244.20;;;;;;;;;;4985505;28;20524;-70
2023/09/24 13:11:46;;;;;;;433.53;245.33;;;;;;;;;;5001242;28;20211;-69
2023/09/24 13:14:13;;;;;;;426.90;243.40;;;;;;;;;;4985451;28;20223;-69
2023/09/24 13:16:41;;;;;;;382.90;224.53;;;;;;;;;;5001942;28;20224;-69
2023/09/24 13:19:08;;;;;;;360.70;223.13;;;;;;;;;;5003556;28;20270;-69
2023/09/24 13:21:33;;;;;;;354.50;220.13;;;;;;;;;;5004096;28;20197;-69
2023/09/24 13:23:59;;;;;;;351.73;222.90;;;;;;;;;;5003988;28;20675;-69
2023/09/24 13:26:25;;;;;;;356.20;227.77;;;;;;;;;;5002619;28;20220;-70
2023/09/24 13:28:51;;;;;;;376.37;245.20;;;;;;;;;;4982843;28;20274;-70
2023/09/24 13:31:17;;;;;;;381.70;251.40;;;;;;;;;;5003420;28;20694;-70
2023/09/24 13:33:43;;;;;;;390.20;271.10;;;;;;;;;;4984867;28;20213;-70
2023/09/24 13:36:11;;;;;;;370.13;274.40;;;;;;;;;;5002856;28;20236;-70
2023/09/24 13:38:37;;;;;;;401.23;295.57;;;;;;;;;;4983628;28;20283;-70
2023/09/24 13:41:04;;;;;;;377.77;292.20;;;;;;;;;;5002948;28;20698;-70
2023/09/24 13:43:30;;;;;;;380.00;316.30;;;;;;;;;;5001864;28;20213;-71
2023/09/24 13:45:56;;;;;;;397.57;342.70;;;;;;;;;;4986461;28;20200;-71
2023/09/24 13:48:22;;;;;;;402.13;336.63;;;;;;;;;;5001799;28;20235;-71
2023/09/24 13:50:51;;;;;;;426.90;371.13;;;;;;;;;;5002930;28;20627;-71
2023/09/24 13:53:18;;;;;;;405.57;361.53;;;;;;;;;;5000793;28;20746;-70